sensor_id;sensor_type;location;lat;lon;timestamp;P1;durP1;ratioP1;P2;durP2;ratioP2
38113;SDS011;23926;53.222;6.354;2022-09-12T00:00:43;14.48;;;12.85;;
38113;SDS011;23926;53.222;6.354;2022-09-12T00:03:09;15.05;;;12.52;;
38113;SDS011;23926;53.222;6.354;2022-09-12T00:05:39;13.35;;;11.85;;
38113;SDS011;23926;53.222;6.354;2022-09-12T00:08:06;25.90;;;12.35;;
38113;SDS011;23926;53.222;6.354;2022-09-12T00:10:31;20.70;;;11.65;;
38113;SDS011;23926;53.222;6.354;2022-09-12T00:12:57;11.15;;;10.05;;
38113;SDS011;23926;53.222;6.354;2022-09-12T00:15:22;16.15;;;9.73;;
38113;SDS011;23926;53.222;6.354;2022-09-12T00:17:47;32.22;;;9.10;;
38113;SDS011;23926;53.222;6.354;2022-09-12T00:20:13;25.73;;;8.73;;
38113;SDS011;23926;53.222;6.354;2022-09-12T00:22:38;8.30;;;7.55;;
38113;SDS011;23926;53.222;6.354;2022-09-12T00:25:04;10.60;;;8.80;;
38113;SDS011;23926;53.222;6.354;2022-09-12T00:27:30;9.50;;;8.60;;
38113;SDS011;23926;53.222;6.354;2022-09-12T00:29:56;10.63;;;9.48;;
38113;SDS011;23926;53.222;6.354;2022-09-12T00:32:21;10.63;;;9.40;;
38113;SDS011;23926;53.222;6.354;2022-09-12T00:34:47;12.40;;;11.10;;
38113;SDS011;23926;53.222;6.354;2022-09-12T00:37:12;12.80;;;11.45;;
38113;SDS011;23926;53.222;6.354;2022-09-12T00:39:38;14.10;;;12.50;;
38113;SDS011;23926;53.222;6.354;2022-09-12T00:42:04;19.10;;;15.20;;
38113;SDS011;23926;53.222;6.354;2022-09-12T00:46:58;15.98;;;14.32;;
38113;SDS011;23926;53.222;6.354;2022-09-12T00:49:28;15.68;;;14.00;;
38113;SDS011;23926;53.222;6.354;2022-09-12T00:52:03;16.92;;;12.25;;
38113;SDS011;23926;53.222;6.354;2022-09-12T00:54:39;66.07;;;14.55;;
38113;SDS011;23926;53.222;6.354;2022-09-12T00:57:11;14.50;;;11.73;;
38113;SDS011;23926;53.222;6.354;2022-09-12T00:59:44;15.68;;;11.65;;
38113;SDS011;23926;53.222;6.354;2022-09-12T01:04:39;14.68;;;13.18;;
38113;SDS011;23926;53.222;6.354;2022-09-12T01:07:05;22.80;;;12.85;;
38113;SDS011;23926;53.222;6.354;2022-09-12T01:09:32;13.70;;;11.55;;
38113;SDS011;23926;53.222;6.354;2022-09-12T01:11:58;13.88;;;12.40;;
38113;SDS011;23926;53.222;6.354;2022-09-12T01:14:25;15.00;;;13.40;;
38113;SDS011;23926;53.222;6.354;2022-09-12T01:16:51;15.00;;;12.43;;
38113;SDS011;23926;53.222;6.354;2022-09-12T01:24:51;15.70;;;12.65;;
38113;SDS011;23926;53.222;6.354;2022-09-12T01:30:56;14.65;;;13.13;;
38113;SDS011;23926;53.222;6.354;2022-09-12T01:33:35;15.48;;;12.95;;
38113;SDS011;23926;53.222;6.354;2022-09-12T01:47:05;17.25;;;15.52;;
38113;SDS011;23926;53.222;6.354;2022-09-12T01:52:30;15.05;;;13.57;;
38113;SDS011;23926;53.222;6.354;2022-09-12T01:55:12;12.95;;;11.65;;
38113;SDS011;23926;53.222;6.354;2022-09-12T01:57:48;15.52;;;11.98;;
38113;SDS011;23926;53.222;6.354;2022-09-12T02:00:24;35.08;;;11.95;;
38113;SDS011;23926;53.222;6.354;2022-09-12T02:05:52;48.10;;;11.32;;
38113;SDS011;23926;53.222;6.354;2022-09-12T02:08:27;36.75;;;9.98;;
38113;SDS011;23926;53.222;6.354;2022-09-12T02:10:59;44.35;;;9.30;;
38113;SDS011;23926;53.222;6.354;2022-09-12T02:16:05;36.22;;;8.43;;
38113;SDS011;23926;53.222;6.354;2022-09-12T02:18:34;9.07;;;6.68;;
38113;SDS011;23926;53.222;6.354;2022-09-12T02:21:08;32.05;;;7.32;;
38113;SDS011;23926;53.222;6.354;2022-09-12T02:23:35;12.05;;;8.25;;
38113;SDS011;23926;53.222;6.354;2022-09-12T02:26:13;29.25;;;8.45;;
38113;SDS011;23926;53.222;6.354;2022-09-12T02:28:49;36.25;;;9.85;;
38113;SDS011;23926;53.222;6.354;2022-09-12T02:39:28;33.92;;;10.68;;
38113;SDS011;23926;53.222;6.354;2022-09-12T02:41:53;30.05;;;9.70;;
38113;SDS011;23926;53.222;6.354;2022-09-12T02:44:20;9.55;;;8.55;;
38113;SDS011;23926;53.222;6.354;2022-09-12T02:46:49;9.73;;;8.82;;
38113;SDS011;23926;53.222;6.354;2022-09-12T02:49:18;10.98;;;9.70;;
38113;SDS011;23926;53.222;6.354;2022-09-12T02:51:44;13.80;;;12.35;;
38113;SDS011;23926;53.222;6.354;2022-09-12T02:54:10;15.75;;;12.48;;
38113;SDS011;23926;53.222;6.354;2022-09-12T02:56:40;25.75;;;14.00;;
38113;SDS011;23926;53.222;6.354;2022-09-12T02:59:07;44.42;;;12.20;;
38113;SDS011;23926;53.222;6.354;2022-09-12T03:04:19;12.52;;;10.38;;
38113;SDS011;23926;53.222;6.354;2022-09-12T03:07:37;20.55;;;10.68;;
38113;SDS011;23926;53.222;6.354;2022-09-12T03:09:57;27.77;;;10.02;;
38113;SDS011;23926;53.222;6.354;2022-09-12T03:18:33;55.60;;;11.90;;
38113;SDS011;23926;53.222;6.354;2022-09-12T03:26:31;42.60;;;11.57;;
38113;SDS011;23926;53.222;6.354;2022-09-12T03:29:03;16.83;;;9.90;;
38113;SDS011;23926;53.222;6.354;2022-09-12T03:31:31;28.27;;;10.32;;
38113;SDS011;23926;53.222;6.354;2022-09-12T03:33:58;21.27;;;9.68;;
38113;SDS011;23926;53.222;6.354;2022-09-12T03:36:26;26.73;;;10.68;;
38113;SDS011;23926;53.222;6.354;2022-09-12T03:38:53;21.90;;;10.98;;
38113;SDS011;23926;53.222;6.354;2022-09-12T03:41:18;21.35;;;9.63;;
38113;SDS011;23926;53.222;6.354;2022-09-12T03:43:44;34.45;;;10.43;;
38113;SDS011;23926;53.222;6.354;2022-09-12T03:46:10;20.30;;;8.68;;
38113;SDS011;23926;53.222;6.354;2022-09-12T03:48:37;30.10;;;9.18;;
38113;SDS011;23926;53.222;6.354;2022-09-12T03:51:04;24.50;;;7.90;;
38113;SDS011;23926;53.222;6.354;2022-09-12T03:53:32;24.67;;;8.07;;
38113;SDS011;23926;53.222;6.354;2022-09-12T03:55:57;58.42;;;9.20;;
38113;SDS011;23926;53.222;6.354;2022-09-12T03:58:24;59.90;;;9.40;;
38113;SDS011;23926;53.222;6.354;2022-09-12T04:00:53;18.50;;;7.00;;
38113;SDS011;23926;53.222;6.354;2022-09-12T04:03:18;32.53;;;7.60;;
38113;SDS011;23926;53.222;6.354;2022-09-12T04:05:44;29.92;;;8.50;;
38113;SDS011;23926;53.222;6.354;2022-09-12T04:08:10;14.30;;;7.45;;
38113;SDS011;23926;53.222;6.354;2022-09-12T04:10:36;14.60;;;7.72;;
38113;SDS011;23926;53.222;6.354;2022-09-12T04:13:01;8.43;;;6.32;;
38113;SDS011;23926;53.222;6.354;2022-09-12T04:15:27;8.38;;;7.50;;
38113;SDS011;23926;53.222;6.354;2022-09-12T04:17:52;10.63;;;8.80;;
38113;SDS011;23926;53.222;6.354;2022-09-12T04:20:17;26.17;;;11.07;;
38113;SDS011;23926;53.222;6.354;2022-09-12T04:22:43;15.63;;;9.75;;
38113;SDS011;23926;53.222;6.354;2022-09-12T04:25:08;18.35;;;10.57;;
38113;SDS011;23926;53.222;6.354;2022-09-12T04:27:33;9.27;;;8.30;;
38113;SDS011;23926;53.222;6.354;2022-09-12T04:29:59;11.73;;;10.20;;
38113;SDS011;23926;53.222;6.354;2022-09-12T04:32:26;12.23;;;10.38;;
38113;SDS011;23926;53.222;6.354;2022-09-12T04:34:52;13.75;;;11.20;;
38113;SDS011;23926;53.222;6.354;2022-09-12T04:37:18;15.63;;;11.40;;
38113;SDS011;23926;53.222;6.354;2022-09-12T04:39:43;15.68;;;12.27;;
38113;SDS011;23926;53.222;6.354;2022-09-12T04:42:09;23.00;;;15.25;;
38113;SDS011;23926;53.222;6.354;2022-09-12T04:44:34;19.90;;;15.00;;
38113;SDS011;23926;53.222;6.354;2022-09-12T04:46:59;20.30;;;15.57;;
38113;SDS011;23926;53.222;6.354;2022-09-12T04:49:25;19.20;;;14.48;;
38113;SDS011;23926;53.222;6.354;2022-09-12T04:51:51;27.23;;;18.75;;
38113;SDS011;23926;53.222;6.354;2022-09-12T04:54:19;30.80;;;20.65;;
38113;SDS011;23926;53.222;6.354;2022-09-12T04:56:45;30.70;;;21.83;;
38113;SDS011;23926;53.222;6.354;2022-09-12T04:59:13;30.67;;;21.77;;
38113;SDS011;23926;53.222;6.354;2022-09-12T05:01:40;31.83;;;23.58;;
38113;SDS011;23926;53.222;6.354;2022-09-12T05:04:05;35.33;;;24.65;;
38113;SDS011;23926;53.222;6.354;2022-09-12T05:06:34;38.78;;;27.05;;
38113;SDS011;23926;53.222;6.354;2022-09-12T05:09:01;40.03;;;27.00;;
38113;SDS011;23926;53.222;6.354;2022-09-12T05:11:29;37.72;;;26.90;;
38113;SDS011;23926;53.222;6.354;2022-09-12T05:13:56;39.15;;;27.30;;
38113;SDS011;23926;53.222;6.354;2022-09-12T05:16:22;47.25;;;31.88;;
38113;SDS011;23926;53.222;6.354;2022-09-12T05:18:49;21.77;;;16.75;;
38113;SDS011;23926;53.222;6.354;2022-09-12T05:21:16;48.90;;;30.15;;
38113;SDS011;23926;53.222;6.354;2022-09-12T05:23:45;24.02;;;17.25;;
38113;SDS011;23926;53.222;6.354;2022-09-12T05:26:12;23.00;;;15.65;;
38113;SDS011;23926;53.222;6.354;2022-09-12T05:28:39;32.13;;;21.02;;
38113;SDS011;23926;53.222;6.354;2022-09-12T05:33:37;25.67;;;18.65;;
38113;SDS011;23926;53.222;6.354;2022-09-12T05:36:04;25.02;;;18.00;;
38113;SDS011;23926;53.222;6.354;2022-09-12T05:38:34;22.48;;;17.35;;
38113;SDS011;23926;53.222;6.354;2022-09-12T05:41:07;31.75;;;22.00;;
38113;SDS011;23926;53.222;6.354;2022-09-12T05:43:35;32.53;;;21.98;;
38113;SDS011;23926;53.222;6.354;2022-09-12T05:46:07;25.17;;;19.23;;
38113;SDS011;23926;53.222;6.354;2022-09-12T05:48:37;41.08;;;25.83;;
38113;SDS011;23926;53.222;6.354;2022-09-12T05:51:05;36.08;;;23.00;;
38113;SDS011;23926;53.222;6.354;2022-09-12T05:53:34;42.20;;;25.73;;
38113;SDS011;23926;53.222;6.354;2022-09-12T05:56:04;33.10;;;23.25;;
38113;SDS011;23926;53.222;6.354;2022-09-12T05:58:34;33.30;;;23.20;;
38113;SDS011;23926;53.222;6.354;2022-09-12T06:01:01;32.35;;;22.90;;
38113;SDS011;23926;53.222;6.354;2022-09-12T06:03:28;36.85;;;24.63;;
38113;SDS011;23926;53.222;6.354;2022-09-12T06:05:53;24.00;;;18.42;;
38113;SDS011;23926;53.222;6.354;2022-09-12T06:08:18;28.88;;;22.10;;
38113;SDS011;23926;53.222;6.354;2022-09-12T06:10:44;28.98;;;22.27;;
38113;SDS011;23926;53.222;6.354;2022-09-12T06:13:09;29.48;;;21.98;;
38113;SDS011;23926;53.222;6.354;2022-09-12T06:15:35;29.70;;;21.08;;
38113;SDS011;23926;53.222;6.354;2022-09-12T06:18:01;35.90;;;24.70;;
38113;SDS011;23926;53.222;6.354;2022-09-12T06:20:27;28.92;;;21.60;;
38113;SDS011;23926;53.222;6.354;2022-09-12T06:22:52;40.15;;;26.02;;
38113;SDS011;23926;53.222;6.354;2022-09-12T06:25:17;31.08;;;22.50;;
38113;SDS011;23926;53.222;6.354;2022-09-12T06:27:43;33.83;;;24.15;;
38113;SDS011;23926;53.222;6.354;2022-09-12T06:30:10;27.70;;;21.00;;
38113;SDS011;23926;53.222;6.354;2022-09-12T06:32:36;33.45;;;23.35;;
38113;SDS011;23926;53.222;6.354;2022-09-12T06:35:01;28.23;;;21.13;;
38113;SDS011;23926;53.222;6.354;2022-09-12T06:37:27;32.85;;;24.10;;
38113;SDS011;23926;53.222;6.354;2022-09-12T06:39:53;39.63;;;25.85;;
38113;SDS011;23926;53.222;6.354;2022-09-12T06:42:19;39.30;;;27.15;;
38113;SDS011;23926;53.222;6.354;2022-09-12T06:44:44;38.25;;;26.42;;
38113;SDS011;23926;53.222;6.354;2022-09-12T06:47:10;38.28;;;22.95;;
38113;SDS011;23926;53.222;6.354;2022-09-12T06:49:36;37.00;;;25.27;;
38113;SDS011;23926;53.222;6.354;2022-09-12T06:52:01;35.55;;;24.58;;
38113;SDS011;23926;53.222;6.354;2022-09-12T06:54:26;41.38;;;28.10;;
38113;SDS011;23926;53.222;6.354;2022-09-12T06:56:52;35.45;;;25.50;;
38113;SDS011;23926;53.222;6.354;2022-09-12T06:59:17;35.45;;;25.67;;
38113;SDS011;23926;53.222;6.354;2022-09-12T07:01:42;41.15;;;28.00;;
38113;SDS011;23926;53.222;6.354;2022-09-12T07:04:08;38.35;;;27.05;;
38113;SDS011;23926;53.222;6.354;2022-09-12T07:06:38;44.60;;;29.52;;
38113;SDS011;23926;53.222;6.354;2022-09-12T07:09:10;35.08;;;23.83;;
38113;SDS011;23926;53.222;6.354;2022-09-12T07:11:37;39.13;;;27.42;;
38113;SDS011;23926;53.222;6.354;2022-09-12T07:14:04;44.30;;;29.75;;
38113;SDS011;23926;53.222;6.354;2022-09-12T07:16:31;53.28;;;32.45;;
38113;SDS011;23926;53.222;6.354;2022-09-12T07:18:59;43.80;;;29.48;;
38113;SDS011;23926;53.222;6.354;2022-09-12T07:21:26;46.83;;;30.75;;
38113;SDS011;23926;53.222;6.354;2022-09-12T07:23:52;46.15;;;30.17;;
38113;SDS011;23926;53.222;6.354;2022-09-12T07:26:20;57.60;;;35.22;;
38113;SDS011;23926;53.222;6.354;2022-09-12T07:28:49;47.00;;;30.15;;
38113;SDS011;23926;53.222;6.354;2022-09-12T07:31:18;49.55;;;30.25;;
38113;SDS011;23926;53.222;6.354;2022-09-12T07:33:44;55.42;;;34.85;;
38113;SDS011;23926;53.222;6.354;2022-09-12T07:36:11;54.70;;;34.55;;
38113;SDS011;23926;53.222;6.354;2022-09-12T07:38:38;49.85;;;31.33;;
38113;SDS011;23926;53.222;6.354;2022-09-12T07:41:10;54.88;;;35.45;;
38113;SDS011;23926;53.222;6.354;2022-09-12T07:43:41;55.15;;;34.50;;
38113;SDS011;23926;53.222;6.354;2022-09-12T07:46:06;62.80;;;36.35;;
38113;SDS011;23926;53.222;6.354;2022-09-12T07:48:32;47.97;;;31.10;;
38113;SDS011;23926;53.222;6.354;2022-09-12T07:50:58;56.75;;;33.47;;
38113;SDS011;23926;53.222;6.354;2022-09-12T07:53:25;56.13;;;32.97;;
38113;SDS011;23926;53.222;6.354;2022-09-12T07:55:58;57.28;;;34.85;;
38113;SDS011;23926;53.222;6.354;2022-09-12T07:58:24;51.30;;;32.25;;
38113;SDS011;23926;53.222;6.354;2022-09-12T08:00:50;60.88;;;36.00;;
38113;SDS011;23926;53.222;6.354;2022-09-12T08:03:16;61.65;;;37.08;;
38113;SDS011;23926;53.222;6.354;2022-09-12T08:05:42;50.40;;;32.55;;
38113;SDS011;23926;53.222;6.354;2022-09-12T08:08:07;60.40;;;36.83;;
38113;SDS011;23926;53.222;6.354;2022-09-12T08:10:33;55.40;;;34.80;;
38113;SDS011;23926;53.222;6.354;2022-09-12T08:12:59;65.20;;;38.35;;
38113;SDS011;23926;53.222;6.354;2022-09-12T08:15:24;60.08;;;38.00;;
38113;SDS011;23926;53.222;6.354;2022-09-12T08:17:50;58.45;;;35.17;;
38113;SDS011;23926;53.222;6.354;2022-09-12T08:20:15;64.18;;;38.47;;
38113;SDS011;23926;53.222;6.354;2022-09-12T08:22:42;55.20;;;34.20;;
38113;SDS011;23926;53.222;6.354;2022-09-12T08:25:08;67.90;;;37.95;;
38113;SDS011;23926;53.222;6.354;2022-09-12T08:27:34;58.28;;;35.67;;
38113;SDS011;23926;53.222;6.354;2022-09-12T08:29:59;54.03;;;34.65;;
38113;SDS011;23926;53.222;6.354;2022-09-12T08:32:24;53.97;;;33.72;;
38113;SDS011;23926;53.222;6.354;2022-09-12T08:34:50;64.72;;;37.00;;
38113;SDS011;23926;53.222;6.354;2022-09-12T08:37:15;59.22;;;36.97;;
38113;SDS011;23926;53.222;6.354;2022-09-12T08:39:41;54.80;;;35.30;;
38113;SDS011;23926;53.222;6.354;2022-09-12T08:42:08;61.47;;;36.05;;
38113;SDS011;23926;53.222;6.354;2022-09-12T08:44:45;63.42;;;38.55;;
38113;SDS011;23926;53.222;6.354;2022-09-12T08:47:24;55.83;;;34.78;;
38113;SDS011;23926;53.222;6.354;2022-09-12T08:56:10;65.35;;;38.70;;
38113;SDS011;23926;53.222;6.354;2022-09-12T08:58:25;67.38;;;40.78;;
38113;SDS011;23926;53.222;6.354;2022-09-12T09:04:01;68.80;;;40.72;;
38113;SDS011;23926;53.222;6.354;2022-09-12T09:17:53;64.25;;;39.10;;
38113;SDS011;23926;53.222;6.354;2022-09-12T09:25:55;81.88;;;48.20;;
38113;SDS011;23926;53.222;6.354;2022-09-12T09:28:27;70.78;;;45.47;;
38113;SDS011;23926;53.222;6.354;2022-09-12T09:31:00;74.07;;;43.63;;
38113;SDS011;23926;53.222;6.354;2022-09-12T09:33:27;78.75;;;47.60;;
38113;SDS011;23926;53.222;6.354;2022-09-12T09:44:00;75.53;;;45.50;;
38113;SDS011;23926;53.222;6.354;2022-09-12T09:46:26;75.57;;;46.13;;
38113;SDS011;23926;53.222;6.354;2022-09-12T09:48:52;76.47;;;46.85;;
38113;SDS011;23926;53.222;6.354;2022-09-12T09:51:24;75.13;;;44.45;;
38113;SDS011;23926;53.222;6.354;2022-09-12T09:53:52;74.30;;;44.33;;
38113;SDS011;23926;53.222;6.354;2022-09-12T09:56:36;83.43;;;47.08;;
38113;SDS011;23926;53.222;6.354;2022-09-12T09:59:16;71.57;;;43.30;;
38113;SDS011;23926;53.222;6.354;2022-09-12T10:01:44;66.88;;;41.10;;
38113;SDS011;23926;53.222;6.354;2022-09-12T10:04:17;74.13;;;43.28;;
38113;SDS011;23926;53.222;6.354;2022-09-12T10:06:44;71.40;;;42.25;;
38113;SDS011;23926;53.222;6.354;2022-09-12T10:11:38;63.78;;;38.20;;
38113;SDS011;23926;53.222;6.354;2022-09-12T10:14:04;58.17;;;36.33;;
38113;SDS011;23926;53.222;6.354;2022-09-12T10:16:54;58.38;;;34.83;;
38113;SDS011;23926;53.222;6.354;2022-09-12T10:19:25;55.42;;;34.38;;
38113;SDS011;23926;53.222;6.354;2022-09-12T10:22:02;55.40;;;33.05;;
38113;SDS011;23926;53.222;6.354;2022-09-12T10:24:31;53.42;;;32.60;;
38113;SDS011;23926;53.222;6.354;2022-09-12T10:27:08;55.60;;;33.90;;
38113;SDS011;23926;53.222;6.354;2022-09-12T10:29:50;50.28;;;30.35;;
38113;SDS011;23926;53.222;6.354;2022-09-12T10:32:27;48.72;;;32.17;;
38113;SDS011;23926;53.222;6.354;2022-09-12T10:35:02;53.45;;;30.77;;
38113;SDS011;23926;53.222;6.354;2022-09-12T10:37:36;45.47;;;28.95;;
38113;SDS011;23926;53.222;6.354;2022-09-12T10:40:04;45.78;;;27.02;;
38113;SDS011;23926;53.222;6.354;2022-09-12T10:45:26;43.50;;;27.17;;
38113;SDS011;23926;53.222;6.354;2022-09-12T10:50:53;45.70;;;26.73;;
38113;SDS011;23926;53.222;6.354;2022-09-12T10:53:24;38.63;;;23.35;;
38113;SDS011;23926;53.222;6.354;2022-09-12T10:56:02;39.40;;;21.58;;
38113;SDS011;23926;53.222;6.354;2022-09-12T10:58:38;32.00;;;19.83;;
38113;SDS011;23926;53.222;6.354;2022-09-12T11:24:31;26.80;;;15.38;;
38113;SDS011;23926;53.222;6.354;2022-09-12T11:27:19;21.38;;;13.25;;
38113;SDS011;23926;53.222;6.354;2022-09-12T11:29:57;22.00;;;12.75;;
38113;SDS011;23926;53.222;6.354;2022-09-12T11:43:18;21.83;;;13.70;;
38113;SDS011;23926;53.222;6.354;2022-09-12T11:46:49;22.98;;;15.85;;
38113;SDS011;23926;53.222;6.354;2022-09-12T11:57:25;21.90;;;13.87;;
38113;SDS011;23926;53.222;6.354;2022-09-12T12:00:05;22.50;;;14.63;;
38113;SDS011;23926;53.222;6.354;2022-09-12T12:02:49;18.75;;;13.80;;
38113;SDS011;23926;53.222;6.354;2022-09-12T12:06:01;20.50;;;13.35;;
38113;SDS011;23926;53.222;6.354;2022-09-12T12:08:30;20.90;;;13.30;;
38113;SDS011;23926;53.222;6.354;2022-09-12T12:11:02;20.88;;;14.18;;
38113;SDS011;23926;53.222;6.354;2022-09-12T12:13:30;21.13;;;12.48;;
38113;SDS011;23926;53.222;6.354;2022-09-12T12:15:59;19.13;;;13.80;;
38113;SDS011;23926;53.222;6.354;2022-09-12T12:18:29;19.50;;;12.57;;
38113;SDS011;23926;53.222;6.354;2022-09-12T12:21:12;22.33;;;13.63;;
38113;SDS011;23926;53.222;6.354;2022-09-12T12:23:40;23.30;;;14.55;;
38113;SDS011;23926;53.222;6.354;2022-09-12T12:36:53;16.75;;;9.93;;
38113;SDS011;23926;53.222;6.354;2022-09-12T12:41:59;17.35;;;11.70;;
38113;SDS011;23926;53.222;6.354;2022-09-12T12:47:14;16.65;;;10.32;;
38113;SDS011;23926;53.222;6.354;2022-09-12T12:49:48;13.63;;;10.20;;
38113;SDS011;23926;53.222;6.354;2022-09-12T12:52:16;17.40;;;11.27;;
38113;SDS011;23926;53.222;6.354;2022-09-12T12:59:41;13.50;;;8.60;;
38113;SDS011;23926;53.222;6.354;2022-09-12T13:02:17;14.15;;;9.70;;
38113;SDS011;23926;53.222;6.354;2022-09-12T13:04:48;17.95;;;10.82;;
38113;SDS011;23926;53.222;6.354;2022-09-12T13:07:20;15.27;;;9.98;;
38113;SDS011;23926;53.222;6.354;2022-09-12T13:09:51;16.90;;;10.25;;
38113;SDS011;23926;53.222;6.354;2022-09-12T13:14:54;20.08;;;12.50;;
38113;SDS011;23926;53.222;6.354;2022-09-12T13:17:24;17.60;;;12.07;;
38113;SDS011;23926;53.222;6.354;2022-09-12T13:19:53;16.58;;;11.07;;
38113;SDS011;23926;53.222;6.354;2022-09-12T13:22:37;15.93;;;11.45;;
38113;SDS011;23926;53.222;6.354;2022-09-12T13:25:22;17.80;;;13.00;;
38113;SDS011;23926;53.222;6.354;2022-09-12T13:30:29;16.42;;;11.35;;
38113;SDS011;23926;53.222;6.354;2022-09-12T13:32:57;18.20;;;11.68;;
38113;SDS011;23926;53.222;6.354;2022-09-12T13:35:59;16.27;;;12.13;;
38113;SDS011;23926;53.222;6.354;2022-09-12T13:41:19;16.23;;;10.25;;
38113;SDS011;23926;53.222;6.354;2022-09-12T13:43:54;17.17;;;11.82;;
38113;SDS011;23926;53.222;6.354;2022-09-12T13:46:25;17.60;;;11.90;;
38113;SDS011;23926;53.222;6.354;2022-09-12T13:48:54;11.75;;;9.48;;
38113;SDS011;23926;53.222;6.354;2022-09-12T13:51:24;11.23;;;8.90;;
38113;SDS011;23926;53.222;6.354;2022-09-12T13:53:53;11.63;;;8.25;;
38113;SDS011;23926;53.222;6.354;2022-09-12T13:56:21;11.93;;;8.38;;
38113;SDS011;23926;53.222;6.354;2022-09-12T13:58:50;11.70;;;8.05;;
38113;SDS011;23926;53.222;6.354;2022-09-12T14:01:19;12.43;;;9.73;;
38113;SDS011;23926;53.222;6.354;2022-09-12T14:03:52;12.80;;;9.32;;
38113;SDS011;23926;53.222;6.354;2022-09-12T14:06:41;11.93;;;9.73;;
38113;SDS011;23926;53.222;6.354;2022-09-12T14:09:18;13.23;;;9.52;;
38113;SDS011;23926;53.222;6.354;2022-09-12T14:14:36;12.13;;;8.68;;
38113;SDS011;23926;53.222;6.354;2022-09-12T14:17:22;12.45;;;8.30;;
38113;SDS011;23926;53.222;6.354;2022-09-12T14:19:50;11.73;;;8.27;;
38113;SDS011;23926;53.222;6.354;2022-09-12T14:22:16;14.23;;;8.93;;
38113;SDS011;23926;53.222;6.354;2022-09-12T14:24:43;10.93;;;8.85;;
38113;SDS011;23926;53.222;6.354;2022-09-12T14:27:22;9.95;;;7.72;;
38113;SDS011;23926;53.222;6.354;2022-09-12T14:29:54;9.27;;;7.45;;
38113;SDS011;23926;53.222;6.354;2022-09-12T14:32:33;11.38;;;8.55;;
38113;SDS011;23926;53.222;6.354;2022-09-12T14:35:03;8.63;;;7.35;;
38113;SDS011;23926;53.222;6.354;2022-09-12T14:37:29;8.75;;;7.05;;
38113;SDS011;23926;53.222;6.354;2022-09-12T14:39:54;8.35;;;6.18;;
38113;SDS011;23926;53.222;6.354;2022-09-12T14:42:21;8.20;;;6.53;;
38113;SDS011;23926;53.222;6.354;2022-09-12T14:44:59;9.05;;;7.45;;
38113;SDS011;23926;53.222;6.354;2022-09-12T14:47:30;8.93;;;6.03;;
38113;SDS011;23926;53.222;6.354;2022-09-12T14:50:03;8.60;;;6.13;;
38113;SDS011;23926;53.222;6.354;2022-09-12T14:52:30;8.80;;;5.97;;
38113;SDS011;23926;53.222;6.354;2022-09-12T15:00:37;7.72;;;5.68;;
38113;SDS011;23926;53.222;6.354;2022-09-12T15:03:19;5.55;;;4.95;;
38113;SDS011;23926;53.222;6.354;2022-09-12T15:05:49;6.30;;;4.82;;
38113;SDS011;23926;53.222;6.354;2022-09-12T15:08:14;7.38;;;5.30;;
38113;SDS011;23926;53.222;6.354;2022-09-12T15:10:40;7.20;;;5.28;;
38113;SDS011;23926;53.222;6.354;2022-09-12T15:13:10;6.97;;;5.53;;
38113;SDS011;23926;53.222;6.354;2022-09-12T15:15:41;6.45;;;5.47;;
38113;SDS011;23926;53.222;6.354;2022-09-12T15:18:09;6.57;;;5.25;;
38113;SDS011;23926;53.222;6.354;2022-09-12T15:20:35;8.15;;;5.43;;
38113;SDS011;23926;53.222;6.354;2022-09-12T15:23:02;7.35;;;5.78;;
38113;SDS011;23926;53.222;6.354;2022-09-12T15:25:28;7.50;;;5.43;;
38113;SDS011;23926;53.222;6.354;2022-09-12T15:27:53;6.70;;;5.72;;
38113;SDS011;23926;53.222;6.354;2022-09-12T15:30:20;6.00;;;5.35;;
38113;SDS011;23926;53.222;6.354;2022-09-12T15:32:45;6.80;;;5.60;;
38113;SDS011;23926;53.222;6.354;2022-09-12T15:35:15;6.68;;;5.97;;
38113;SDS011;23926;53.222;6.354;2022-09-12T15:37:42;6.60;;;5.32;;
38113;SDS011;23926;53.222;6.354;2022-09-12T15:40:08;7.63;;;5.60;;
38113;SDS011;23926;53.222;6.354;2022-09-12T15:42:35;8.20;;;5.90;;
38113;SDS011;23926;53.222;6.354;2022-09-12T15:45:00;6.80;;;6.03;;
38113;SDS011;23926;53.222;6.354;2022-09-12T15:47:25;6.57;;;5.97;;
38113;SDS011;23926;53.222;6.354;2022-09-12T15:49:51;6.82;;;6.03;;
38113;SDS011;23926;53.222;6.354;2022-09-12T15:52:16;9.73;;;6.05;;
38113;SDS011;23926;53.222;6.354;2022-09-12T15:54:42;7.50;;;6.75;;
38113;SDS011;23926;53.222;6.354;2022-09-12T15:57:07;9.90;;;6.03;;
38113;SDS011;23926;53.222;6.354;2022-09-12T15:59:33;8.35;;;5.70;;
38113;SDS011;23926;53.222;6.354;2022-09-12T16:01:59;10.57;;;6.63;;
38113;SDS011;23926;53.222;6.354;2022-09-12T16:04:27;7.55;;;6.15;;
38113;SDS011;23926;53.222;6.354;2022-09-12T16:06:54;8.10;;;6.32;;
38113;SDS011;23926;53.222;6.354;2022-09-12T16:09:20;7.32;;;6.20;;
38113;SDS011;23926;53.222;6.354;2022-09-12T16:11:46;7.60;;;6.80;;
38113;SDS011;23926;53.222;6.354;2022-09-12T16:14:15;6.97;;;6.28;;
38113;SDS011;23926;53.222;6.354;2022-09-12T16:16:42;10.38;;;8.05;;
38113;SDS011;23926;53.222;6.354;2022-09-12T16:19:09;8.13;;;6.93;;
38113;SDS011;23926;53.222;6.354;2022-09-12T16:21:36;8.05;;;7.30;;
38113;SDS011;23926;53.222;6.354;2022-09-12T16:24:02;7.38;;;6.60;;
38113;SDS011;23926;53.222;6.354;2022-09-12T16:26:29;10.10;;;7.30;;
38113;SDS011;23926;53.222;6.354;2022-09-12T16:28:57;8.50;;;6.78;;
38113;SDS011;23926;53.222;6.354;2022-09-12T16:31:23;7.90;;;7.10;;
38113;SDS011;23926;53.222;6.354;2022-09-12T16:33:50;8.05;;;7.07;;
38113;SDS011;23926;53.222;6.354;2022-09-12T16:36:17;7.70;;;6.60;;
38113;SDS011;23926;53.222;6.354;2022-09-12T16:38:44;9.27;;;7.68;;
38113;SDS011;23926;53.222;6.354;2022-09-12T16:41:15;9.00;;;7.70;;
38113;SDS011;23926;53.222;6.354;2022-09-12T16:43:42;9.85;;;8.10;;
38113;SDS011;23926;53.222;6.354;2022-09-12T16:46:08;9.80;;;7.38;;
38113;SDS011;23926;53.222;6.354;2022-09-12T16:48:43;8.25;;;6.95;;
38113;SDS011;23926;53.222;6.354;2022-09-12T16:51:10;8.60;;;7.28;;
38113;SDS011;23926;53.222;6.354;2022-09-12T16:53:36;8.20;;;7.28;;
38113;SDS011;23926;53.222;6.354;2022-09-12T16:56:03;8.25;;;7.28;;
38113;SDS011;23926;53.222;6.354;2022-09-12T16:58:33;8.35;;;7.22;;
38113;SDS011;23926;53.222;6.354;2022-09-12T17:01:03;9.43;;;7.05;;
38113;SDS011;23926;53.222;6.354;2022-09-12T17:03:31;8.40;;;7.60;;
38113;SDS011;23926;53.222;6.354;2022-09-12T17:05:57;8.95;;;7.68;;
38113;SDS011;23926;53.222;6.354;2022-09-12T17:08:23;9.93;;;6.65;;
38113;SDS011;23926;53.222;6.354;2022-09-12T17:10:49;9.10;;;7.93;;
38113;SDS011;23926;53.222;6.354;2022-09-12T17:13:14;8.63;;;7.47;;
38113;SDS011;23926;53.222;6.354;2022-09-12T17:15:40;8.02;;;7.07;;
38113;SDS011;23926;53.222;6.354;2022-09-12T17:18:06;9.65;;;7.13;;
38113;SDS011;23926;53.222;6.354;2022-09-12T17:20:33;11.20;;;8.63;;
38113;SDS011;23926;53.222;6.354;2022-09-12T17:22:59;8.52;;;7.63;;
38113;SDS011;23926;53.222;6.354;2022-09-12T17:25:25;9.02;;;7.90;;
38113;SDS011;23926;53.222;6.354;2022-09-12T17:27:51;10.07;;;8.90;;
38113;SDS011;23926;53.222;6.354;2022-09-12T17:30:17;10.50;;;9.02;;
38113;SDS011;23926;53.222;6.354;2022-09-12T17:32:42;11.70;;;9.85;;
38113;SDS011;23926;53.222;6.354;2022-09-12T17:35:08;14.43;;;11.07;;
38113;SDS011;23926;53.222;6.354;2022-09-12T17:37:34;14.43;;;9.43;;
38113;SDS011;23926;53.222;6.354;2022-09-12T17:40:00;12.27;;;9.52;;